createdAt,value
2017-12-09T00:01:55.912Z,100823.27
2017-12-09T00:04:04.409Z,100817.45
2017-12-09T00:06:13.035Z,100827.75
2017-12-09T00:08:21.926Z,100821.08
2017-12-09T00:10:30.565Z,100832.39
2017-12-09T00:12:39.237Z,100828.77
2017-12-09T00:14:47.897Z,100831.89
2017-12-09T00:16:56.720Z,100830.33
2017-12-09T00:19:05.435Z,100831.16
2017-12-09T00:21:14.016Z,100834.67
2017-12-09T00:23:22.741Z,100836.15
2017-12-09T00:25:31.357Z,100838.43
2017-12-09T00:27:43.750Z,100836.66
2017-12-09T00:29:52.809Z,100832.70
2017-12-09T00:32:01.526Z,100833.95
2017-12-09T00:34:10.142Z,100834.89
2017-12-09T00:36:18.948Z,100843.08
2017-12-09T00:38:27.660Z,100839.45
2017-12-09T00:40:36.275Z,100840.89
2017-12-09T00:42:45.053Z,100836.84
2017-12-09T00:44:53.926Z,100843.59
2017-12-09T00:47:02.544Z,100843.29
2017-12-09T00:49:11.202Z,100843.67
2017-12-09T00:51:19.879Z,100840.98
2017-12-09T00:53:28.692Z,100843.17
2017-12-09T00:55:37.306Z,100847.22
2017-12-09T00:57:46.072Z,100843.67
2017-12-09T00:59:54.982Z,100849.92
2017-12-09T01:02:03.659Z,100850.05
2017-12-09T01:04:12.600Z,100850.55
2017-12-09T01:06:21.348Z,100850.05
2017-12-09T01:08:30.056Z,100850.97
2017-12-09T01:10:38.671Z,100855.53
2017-12-09T01:12:47.497Z,100850.97
2017-12-09T01:14:56.163Z,100856.46
2017-12-09T01:17:16.912Z,100858.23
2017-12-09T01:19:25.661Z,100852.83
2017-12-09T01:21:34.440Z,100853.34
2017-12-09T01:23:42.948Z,100850.64
2017-12-09T01:25:51.727Z,100849.29
2017-12-09T01:28:00.490Z,100852.83
2017-12-09T01:30:09.320Z,100854.69
2017-12-09T01:32:18.283Z,100856.46
2017-12-09T01:34:27.016Z,100856.97
2017-12-09T01:36:35.879Z,100852.92
2017-12-09T01:38:44.612Z,100849.80
2017-12-09T01:40:53.357Z,100850.73
2017-12-09T01:43:02.054Z,100851.23
2017-12-09T01:45:10.836Z,100849.38
2017-12-09T01:47:19.610Z,100851.23
2017-12-09T01:49:28.351Z,100858.92
2017-12-09T01:51:37.094Z,100852.16
2017-12-09T01:53:45.814Z,100855.29
2017-12-09T01:55:54.413Z,100850.81
2017-12-09T01:58:03.179Z,100850.01
2017-12-09T02:00:11.901Z,100852.71
2017-12-09T02:02:20.731Z,100863.09
2017-12-09T02:04:29.443Z,100863.09
2017-12-09T02:06:38.175Z,100863.09
2017-12-09T02:08:47.025Z,100871.61
2017-12-09T02:10:55.876Z,100878.88
2017-12-09T02:13:04.540Z,100876.59
2017-12-09T02:15:13.045Z,100880.23
2017-12-09T02:17:21.852Z,100882.42
2017-12-09T02:19:30.492Z,100891.87
2017-12-09T02:21:39.164Z,100888.33
2017-12-09T02:23:47.752Z,100891.95
2017-12-09T02:25:56.507Z,100888.33
2017-12-09T02:28:05.208Z,100884.28
2017-12-09T02:30:13.911Z,100876.27
2017-12-09T02:32:22.613Z,100875.33
2017-12-09T02:34:31.377Z,100873.56
2017-12-09T02:36:40.294Z,100873.14
2017-12-09T02:38:48.813Z,100870.44
2017-12-09T02:40:57.537Z,100867.23
2017-12-09T02:43:06.137Z,100870.86
2017-12-09T02:45:14.834Z,100865.04
2017-12-09T02:47:23.447Z,100874.58
2017-12-09T02:49:32.041Z,100867.83
2017-12-09T02:51:40.737Z,100878.21
2017-12-09T02:53:49.456Z,100875.00
2017-12-09T02:55:58.382Z,100879.14
2017-12-09T02:58:07.174Z,100874.67
2017-12-09T03:00:15.836Z,100875.51
2017-12-09T03:02:24.603Z,100879.14
2017-12-09T03:04:33.200Z,100872.51
2017-12-09T03:06:41.898Z,100871.16
2017-12-09T03:08:50.731Z,100869.27
2017-12-09T03:10:59.507Z,100863.14
2017-12-09T03:13:08.085Z,100859.09
2017-12-09T03:15:16.786Z,100862.64
2017-12-09T03:17:25.504Z,100853.27
2017-12-09T03:19:34.041Z,100860.02
2017-12-09T03:21:42.670Z,100851.08
2017-12-09T03:23:51.403Z,100855.13
2017-12-09T03:26:00.161Z,100850.58
2017-12-09T03:28:08.910Z,100848.47
2017-12-09T03:30:17.656Z,100852.52
2017-12-09T03:32:26.413Z,100847.45
2017-12-09T03:34:35.141Z,100838.51
2017-12-09T03:36:44.156Z,100842.14
2017-12-09T03:38:52.712Z,100838.09
2017-12-09T03:41:01.424Z,100842.14
2017-12-09T03:43:09.972Z,100839.95
2017-12-09T03:45:18.713Z,100835.39
2017-12-09T03:47:27.685Z,100832.77
2017-12-09T03:49:36.259Z,100833.20
2017-12-09T03:51:45.114Z,100830.70
2017-12-09T03:53:53.783Z,100835.59
2017-12-09T03:56:02.385Z,100843.79
2017-12-09T03:58:11.218Z,100835.09
2017-12-09T04:00:20.927Z,100844.54
2017-12-09T04:02:29.573Z,100851.38
2017-12-09T04:04:38.230Z,100846.48
2017-12-09T04:06:47.089Z,100850.53
2017-12-09T04:08:55.856Z,100851.89
2017-12-09T04:11:04.397Z,100856.36
2017-12-09T04:13:13.236Z,100866.73
2017-12-09T04:15:21.996Z,100857.37
2017-12-09T04:17:30.531Z,100863.20
2017-12-09T04:19:39.317Z,100870.45
2017-12-09T04:21:47.897Z,100869.53
2017-12-09T04:23:56.743Z,100873.58
2017-12-09T04:26:05.507Z,100861.94
2017-12-09T04:28:14.318Z,100864.55
2017-12-09T04:30:23.032Z,100860.59
2017-12-09T04:32:31.781Z,100866.41
2017-12-09T04:34:40.336Z,100862.98
2017-12-09T04:36:49.451Z,100863.28
2017-12-09T04:38:58.306Z,100856.23
2017-12-09T04:41:07.106Z,100855.70
2017-12-09T04:43:15.650Z,100861.64
2017-12-09T04:45:24.373Z,100848.13
2017-12-09T04:47:33.151Z,100844.59
2017-12-09T04:49:41.882Z,100841.39
2017-12-09T04:51:50.630Z,100843.24
2017-12-09T04:53:59.285Z,100837.42
2017-12-09T04:56:08.000Z,100834.72
2017-12-09T04:58:16.651Z,100841.98
2017-12-09T05:00:25.336Z,100839.28
2017-12-09T05:02:34.046Z,100831.19
2017-12-09T05:04:42.726Z,100840.13
2017-12-09T05:06:51.540Z,100854.22
2017-12-09T05:09:00.257Z,100844.34
2017-12-09T05:11:08.956Z,100839.79
2017-12-09T05:13:17.703Z,100836.58
2017-12-09T05:15:26.521Z,100832.20
2017-12-09T05:17:35.120Z,100830.84
2017-12-09T05:19:43.833Z,100833.67
2017-12-09T05:21:52.700Z,100836.76
2017-12-09T05:24:01.517Z,100844.98
2017-12-09T05:26:10.272Z,100844.47
2017-12-09T05:28:19.071Z,100845.41
2017-12-09T05:30:27.770Z,100851.22
2017-12-09T05:32:36.476Z,100847.17
2017-12-09T05:34:45.347Z,100842.16
2017-12-09T05:36:54.504Z,100845.06
2017-12-09T05:39:03.095Z,100842.79
2017-12-09T05:41:11.639Z,100834.27
2017-12-09T05:43:20.184Z,100839.25
2017-12-09T05:45:28.680Z,100841.44
2017-12-09T05:47:37.606Z,100844.14
2017-12-09T05:49:46.372Z,100855.03
2017-12-09T05:51:55.098Z,100847.34
2017-12-09T05:54:03.678Z,100844.65
2017-12-09T05:56:12.276Z,100842.45
2017-12-09T05:58:21.300Z,100841.95
2017-12-09T06:00:29.820Z,100849.20
2017-12-09T06:02:38.770Z,100842.97
2017-12-09T06:04:48.375Z,100843.47
2017-12-09T06:06:56.943Z,100841.20
2017-12-09T06:09:05.896Z,100831.75
2017-12-09T06:11:14.615Z,100827.27
2017-12-09T06:13:23.221Z,100833.52
2017-12-09T06:15:31.828Z,100839.42
2017-12-09T06:17:40.479Z,100840.77
2017-12-09T06:19:49.096Z,100835.38
2017-12-09T06:21:57.667Z,100838.50
2017-12-09T06:24:06.372Z,100833.09
2017-12-09T06:26:15.161Z,100818.16
2017-12-09T06:28:23.935Z,100826.77
2017-12-09T06:30:32.754Z,100821.88
2017-12-09T06:32:41.480Z,100825.92
2017-12-09T06:34:50.125Z,100828.23
2017-12-09T06:36:59.195Z,100831.33
2017-12-09T06:39:08.030Z,100833.09
2017-12-09T06:41:16.845Z,100842.12
2017-12-09T06:43:25.471Z,100854.27
2017-12-09T06:45:34.282Z,100844.02
2017-12-09T06:47:43.004Z,100846.59
2017-12-09T06:49:51.630Z,100846.17
2017-12-09T06:52:00.405Z,100846.17
2017-12-09T06:54:09.130Z,100854.81
2017-12-09T06:56:17.844Z,100860.64
2017-12-09T06:58:26.685Z,100865.61
2017-12-09T07:00:35.436Z,100863.34
2017-12-09T07:02:44.140Z,100858.44
2017-12-09T07:04:52.968Z,100855.33
2017-12-09T07:07:01.765Z,100862.50
2017-12-09T07:09:10.559Z,100858.44
2017-12-09T07:11:19.449Z,100872.88
2017-12-09T07:13:28.140Z,100866.97
2017-12-09T07:15:36.864Z,100870.59
2017-12-09T07:17:45.554Z,100867.05
2017-12-09T07:19:54.413Z,100865.20
2017-12-09T07:22:03.174Z,100867.89
2017-12-09T07:24:11.808Z,100873.80
2017-12-09T07:26:20.412Z,100865.28
2017-12-09T07:28:29.096Z,100867.89
2017-12-09T07:30:37.686Z,100878.27
2017-12-09T07:32:46.532Z,100869.75
2017-12-09T07:34:55.224Z,100868.83
2017-12-09T07:37:04.096Z,100863.09
2017-12-09T07:39:12.728Z,100871.52
2017-12-09T07:41:21.325Z,100866.21
2017-12-09T07:43:29.935Z,100869.33
2017-12-09T07:45:38.608Z,100864.77
2017-12-09T07:47:47.327Z,100854.39
2017-12-09T07:49:55.852Z,100855.83
2017-12-09T07:52:04.700Z,100855.33
2017-12-09T07:54:13.419Z,100853.97
2017-12-09T07:56:22.356Z,100849.50
2017-12-09T07:58:31.162Z,100851.27
2017-12-09T08:00:39.821Z,100846.38
2017-12-09T08:02:48.610Z,100834.23
2017-12-09T08:04:57.415Z,100843.69
2017-12-09T08:07:06.030Z,100843.69
2017-12-09T08:09:14.749Z,100840.47
2017-12-09T08:11:23.373Z,100845.45
2017-12-09T08:13:32.119Z,100850.02
2017-12-09T08:15:40.697Z,100848.16
2017-12-09T08:17:49.424Z,100850.02
2017-12-09T08:19:58.137Z,100849.08
2017-12-09T08:22:06.916Z,100855.41
2017-12-09T08:24:15.863Z,100846.38
2017-12-09T08:26:24.592Z,100864.86
2017-12-09T08:28:33.156Z,100868.41
2017-12-09T08:30:41.792Z,100856.77
2017-12-09T08:32:50.536Z,100864.44
2017-12-09T08:34:59.450Z,100874.73
2017-12-09T08:37:09.604Z,100869.84
2017-12-09T08:39:18.335Z,100868.41
2017-12-09T08:41:27.126Z,100868.91
2017-12-09T08:43:35.785Z,100875.16
2017-12-09T08:45:44.350Z,100882.83
2017-12-09T08:47:52.886Z,100881.91
2017-12-09T08:50:01.537Z,100880.13
2017-12-09T08:52:10.328Z,100882.83
2017-12-09T08:54:18.986Z,100882.41
2017-12-09T08:56:27.892Z,100894.98
2017-12-09T08:58:37.476Z,100894.98
2017-12-09T09:00:46.178Z,100900.47
2017-12-09T09:02:54.895Z,100900.80
2017-12-09T09:05:03.612Z,100903.08
2017-12-09T09:07:12.303Z,100901.31
2017-12-09T09:09:21.137Z,100897.77
2017-12-09T09:11:30.017Z,100902.24
2017-12-09T09:13:38.655Z,100901.73
2017-12-09T09:15:47.648Z,100904.43
2017-12-09T09:17:56.272Z,100903.59
2017-12-09T09:20:04.831Z,100902.16
2017-12-09T09:22:13.634Z,100902.16
2017-12-09T09:24:22.353Z,100906.29
2017-12-09T09:26:31.004Z,100908.98
2017-12-09T09:28:39.752Z,100917.51
2017-12-09T09:30:48.545Z,100914.30
2017-12-09T09:32:57.349Z,100920.21
2017-12-09T09:35:06.120Z,100925.10
2017-12-09T09:37:15.086Z,100918.86
2017-12-09T09:39:23.724Z,100925.19
2017-12-09T09:41:33.371Z,100919.28
2017-12-09T09:43:42.121Z,100914.72
2017-12-09T09:45:50.960Z,100912.95
2017-12-09T09:47:59.734Z,100920.63
2017-12-09T09:50:08.439Z,100915.66
2017-12-09T09:52:17.053Z,100917.94
2017-12-09T09:54:25.900Z,100921.39
2017-12-09T09:56:34.388Z,100924.09
2017-12-09T09:58:42.970Z,100922.73
2017-12-09T10:00:51.543Z,100921.39
2017-12-09T10:03:00.253Z,100916.38
2017-12-09T10:05:09.798Z,100929.88
2017-12-09T10:07:18.761Z,100919.91
2017-12-09T10:09:27.578Z,100917.64
2017-12-09T10:11:36.257Z,100914.84
2017-12-09T10:13:44.851Z,100917.55
2017-12-09T10:15:53.463Z,100913.41
2017-12-09T10:18:02.980Z,100916.75
2017-12-09T10:20:11.881Z,100923.41
2017-12-09T10:22:20.766Z,100916.99
2017-12-09T10:24:29.437Z,100922.19
2017-12-09T10:26:38.015Z,100917.54
2017-12-09T10:28:46.960Z,100923.24
2017-12-09T10:30:55.824Z,100914.97
2017-12-09T10:33:04.454Z,100910.83
2017-12-09T10:35:13.200Z,100905.00
2017-12-09T10:37:22.047Z,100912.39
2017-12-09T10:39:30.801Z,100904.28
2017-12-09T10:41:39.634Z,100903.18
2017-12-09T10:43:48.416Z,100904.41
2017-12-09T10:45:57.037Z,100905.25
2017-12-09T10:48:05.600Z,100907.87
2017-12-09T10:50:14.279Z,100911.58
2017-12-09T10:52:22.956Z,100906.72
2017-12-09T10:54:31.760Z,100906.48
2017-12-09T10:56:40.407Z,100907.62
2017-12-09T10:58:49.442Z,100900.11
2017-12-09T11:00:58.087Z,100903.74
2017-12-09T11:03:06.756Z,100908.00
2017-12-09T11:05:15.340Z,100902.69
2017-12-09T11:07:23.839Z,100900.41
2017-12-09T11:09:32.580Z,100900.58
2017-12-09T11:11:41.304Z,100901.93
2017-12-09T11:13:49.997Z,100899.23
2017-12-09T11:15:58.754Z,100902.02
2017-12-09T11:18:07.607Z,100905.14
2017-12-09T11:20:16.379Z,100902.56
2017-12-09T11:22:24.895Z,100903.49
2017-12-09T11:24:33.739Z,100900.16
2017-12-09T11:26:42.436Z,100902.44
2017-12-09T11:28:51.044Z,100904.72
2017-12-09T11:30:59.922Z,100906.61
2017-12-09T11:33:08.724Z,100900.58
2017-12-09T11:35:17.572Z,100899.98
2017-12-09T11:37:26.430Z,100902.05
2017-12-09T11:39:35.088Z,100900.95
2017-12-09T11:41:43.623Z,100898.47
2017-12-09T11:43:52.381Z,100899.39
2017-12-09T11:46:01.155Z,100891.71
2017-12-09T11:48:09.972Z,100896.52
2017-12-09T11:50:18.735Z,100898.20
2017-12-09T11:52:27.421Z,100898.63
2017-12-09T11:54:36.180Z,100903.91
2017-12-09T11:56:45.013Z,100903.39
2017-12-09T11:58:53.676Z,100897.99
2017-12-09T12:01:02.296Z,100908.28
2017-12-09T12:03:11.052Z,100900.19
2017-12-09T12:05:19.911Z,100899.67
2017-12-09T12:07:28.736Z,100907.27
2017-12-09T12:09:37.579Z,100896.34
2017-12-09T12:11:46.208Z,100897.70
2017-12-09T12:13:54.940Z,100898.11
2017-12-09T12:16:03.585Z,100898.53
2017-12-09T12:18:12.196Z,100892.62
2017-12-09T12:20:20.786Z,100902.92
2017-12-09T12:22:29.677Z,100900.22
2017-12-09T12:24:38.503Z,100900.22
2017-12-09T12:26:47.115Z,100898.87
2017-12-09T12:28:55.832Z,100897.52
2017-12-09T12:31:04.544Z,100894.39
2017-12-09T12:33:13.537Z,100899.29
2017-12-09T12:35:22.167Z,100897.85
2017-12-09T12:37:31.188Z,100887.05
2017-12-09T12:39:39.994Z,100889.33
2017-12-09T12:41:48.809Z,100888.91
2017-12-09T12:43:57.470Z,100886.12
2017-12-09T12:46:06.238Z,100887.98
2017-12-09T12:48:15.092Z,100888.81
2017-12-09T12:50:23.879Z,100878.94
2017-12-09T12:52:32.742Z,100878.52
2017-12-09T12:54:41.623Z,100882.06
2017-12-09T12:56:50.404Z,100881.64
2017-12-09T12:58:59.112Z,100875.31
2017-12-09T13:01:07.995Z,100878.31
2017-12-09T13:03:16.788Z,100884.98
2017-12-09T13:05:25.523Z,100886.75
2017-12-09T13:07:34.192Z,100885.81
2017-12-09T13:09:43.036Z,100889.87
2017-12-09T13:11:51.663Z,100884.37
2017-12-09T13:14:00.367Z,100882.19
2017-12-09T13:16:09.070Z,100883.45
2017-12-09T13:18:17.629Z,100884.80
2017-12-09T13:20:26.465Z,100896.41
2017-12-09T13:22:35.305Z,100891.55
2017-12-09T13:24:44.204Z,100896.84
2017-12-09T13:26:53.071Z,100891.85
2017-12-09T13:29:01.802Z,100887.50
2017-12-09T13:31:10.519Z,100904.52
2017-12-09T13:33:19.107Z,100897.88
2017-12-09T13:35:27.955Z,100896.41
2017-12-09T13:37:36.872Z,100898.73
2017-12-09T13:39:45.647Z,100900.08
2017-12-09T13:41:54.461Z,100897.77
2017-12-09T13:44:03.246Z,100891.02
2017-12-09T13:46:11.896Z,100894.67
2017-12-09T13:48:20.608Z,100893.71
2017-12-09T13:50:29.460Z,100891.13
2017-12-09T13:52:38.403Z,100884.37
2017-12-09T13:54:47.224Z,100889.36
2017-12-09T13:56:55.988Z,100882.61
2017-12-09T13:59:04.764Z,100889.36
2017-12-09T14:01:13.470Z,100887.50
2017-12-09T14:03:22.291Z,100884.37
2017-12-09T14:05:31.022Z,100890.08
2017-12-09T14:07:39.720Z,100878.98
2017-12-09T14:09:48.575Z,100877.63
2017-12-09T14:11:57.300Z,100872.64
2017-12-09T14:14:05.925Z,100869.95
2017-12-09T14:16:14.593Z,100868.59
2017-12-09T14:18:23.204Z,100864.96
2017-12-09T14:20:31.922Z,100870.24
2017-12-09T14:22:40.639Z,100859.56
2017-12-09T14:24:49.561Z,100855.51
2017-12-09T14:26:58.304Z,100855.51
2017-12-09T14:29:06.994Z,100858.59
2017-12-09T14:31:15.816Z,100853.20
2017-12-09T14:33:24.469Z,100853.11
2017-12-09T14:35:33.183Z,100854.55
2017-12-09T14:37:42.111Z,100860.28
2017-12-09T14:39:50.660Z,100861.72
2017-12-09T14:41:59.369Z,100859.44
2017-12-09T14:44:08.199Z,100862.14
2017-12-09T14:46:16.759Z,100868.47
2017-12-09T14:48:25.549Z,100865.69
2017-12-09T14:50:34.351Z,100866.10
2017-12-09T14:52:42.893Z,100862.47
2017-12-09T14:54:51.544Z,100865.69
2017-12-09T14:57:00.285Z,100869.22
2017-12-09T14:59:09.234Z,100866.10
2017-12-09T15:01:17.948Z,100865.17
2017-12-09T15:03:26.729Z,100861.20
2017-12-09T15:05:35.480Z,100868.89
2017-12-09T15:07:44.199Z,100868.05
2017-12-09T15:09:52.932Z,100867.13
2017-12-09T15:12:01.530Z,100872.52
2017-12-09T15:14:10.244Z,100871.59
2017-12-09T15:16:19.242Z,100867.55
2017-12-09T15:18:28.141Z,100865.34
2017-12-09T15:20:36.777Z,100872.10
2017-12-09T15:22:45.463Z,100874.41
2017-12-09T15:24:54.236Z,100867.66
2017-12-09T15:27:02.864Z,100869.83
2017-12-09T15:29:11.604Z,100863.61
2017-12-09T15:31:20.257Z,100868.17
2017-12-09T15:33:28.880Z,100862.27
2017-12-09T15:35:37.458Z,100856.53
2017-12-09T15:37:46.444Z,100854.25
2017-12-09T15:39:55.100Z,100856.95
2017-12-09T15:42:03.868Z,100858.30
2017-12-09T15:44:12.660Z,100853.83
2017-12-09T15:46:21.292Z,100849.36
2017-12-09T15:48:29.931Z,100859.56
2017-12-09T15:50:38.644Z,100856.95
2017-12-09T15:52:47.414Z,100858.30
2017-12-09T15:54:56.360Z,100848.00
2017-12-09T15:57:05.127Z,100852.98
2017-12-09T15:59:13.808Z,100847.58
2017-12-09T16:01:22.322Z,100852.98
2017-12-09T16:03:30.892Z,100845.39
2017-12-09T16:05:39.857Z,100847.49
2017-12-09T16:07:48.650Z,100835.01
2017-12-09T16:09:57.476Z,100837.20
2017-12-09T16:12:06.205Z,100836.36
2017-12-09T16:14:14.888Z,100841.25
2017-12-09T16:16:23.741Z,100832.81
2017-12-09T16:18:32.551Z,100831.89
2017-12-09T16:20:41.285Z,100828.67
2017-12-09T16:22:50.000Z,100825.64
2017-12-09T16:24:58.718Z,100824.72
2017-12-09T16:27:07.394Z,100814.42
2017-12-09T16:29:16.212Z,100824.41
2017-12-09T16:31:24.780Z,100824.80
2017-12-09T16:33:33.576Z,100827.63
2017-12-09T16:35:42.396Z,100823.87
2017-12-09T16:37:51.538Z,100819.94
2017-12-09T16:40:00.349Z,100832.09
2017-12-09T16:42:09.833Z,100820.03
2017-12-09T16:44:18.555Z,100824.92
2017-12-09T16:46:27.161Z,100826.70
2017-12-09T16:48:35.764Z,100825.34
2017-12-09T16:50:44.639Z,100832.61
2017-12-09T16:52:53.312Z,100824.92
2017-12-09T16:55:02.057Z,100835.73
2017-12-09T16:57:10.833Z,100829.48
2017-12-09T16:59:19.540Z,100837.59
2017-12-09T17:01:28.030Z,100835.81
2017-12-09T17:03:36.817Z,100835.81
2017-12-09T17:05:45.697Z,100830.92
2017-12-09T17:07:54.208Z,100843.08
2017-12-09T17:10:02.804Z,100837.67
2017-12-09T17:12:11.732Z,100837.26
2017-12-09T17:14:20.635Z,100838.28
2017-12-09T17:16:29.301Z,100835.58
2017-12-09T17:18:38.022Z,100839.23
2017-12-09T17:20:46.572Z,100838.81
2017-12-09T17:22:55.484Z,100826.13
2017-12-09T17:25:04.081Z,100831.23
2017-12-09T17:27:13.817Z,100829.45
2017-12-09T17:29:22.569Z,100836.63
2017-12-09T17:31:31.285Z,100833.09
2017-12-09T17:33:40.610Z,100825.41
2017-12-09T17:35:49.309Z,100824.56
2017-12-09T17:37:58.374Z,100821.02
2017-12-09T17:40:06.894Z,100819.16
2017-12-09T17:42:15.520Z,100817.90
2017-12-09T17:44:24.238Z,100816.97
2017-12-09T17:46:32.868Z,100817.59
2017-12-09T17:48:41.584Z,100807.09
2017-12-09T17:50:50.372Z,100807.19
2017-12-09T17:52:59.265Z,100801.78
2017-12-09T17:55:08.090Z,100797.34
2017-12-09T17:57:16.697Z,100793.68
2017-12-09T17:59:25.455Z,100799.20
2017-12-09T18:01:34.143Z,100793.80
2017-12-09T18:03:42.846Z,100799.20
2017-12-09T18:05:51.466Z,100801.48
2017-12-09T18:08:00.393Z,100799.72
2017-12-09T18:10:09.230Z,100800.98
2017-12-09T18:12:17.917Z,100798.36
2017-12-09T18:14:26.839Z,100801.99
2017-12-09T18:16:35.610Z,100791.70
2017-12-09T18:18:44.250Z,100789.93
2017-12-09T18:20:52.880Z,100792.63
2017-12-09T18:23:01.644Z,100785.87
2017-12-09T18:25:10.424Z,100791.38
2017-12-09T18:27:19.188Z,100781.41
2017-12-09T18:29:27.755Z,100779.64
2017-12-09T18:31:36.571Z,100789.09
2017-12-09T18:33:45.185Z,100788.67
2017-12-09T18:35:53.986Z,100785.67
2017-12-09T18:38:02.836Z,100780.69
2017-12-09T18:40:11.611Z,100776.09
2017-12-09T18:42:20.460Z,100779.43
2017-12-09T18:44:29.174Z,100780.27
2017-12-09T18:46:37.955Z,100766.86
2017-12-09T18:48:46.924Z,100762.89
2017-12-09T18:50:55.532Z,100751.58
2017-12-09T18:53:04.320Z,100752.94
2017-12-09T18:55:13.274Z,100748.05
2017-12-09T18:57:21.848Z,100750.33
2017-12-09T18:59:30.603Z,100747.20
2017-12-09T19:01:39.316Z,100749.91
2017-12-09T19:03:47.991Z,100741.50
2017-12-09T19:05:56.675Z,100740.42
2017-12-09T19:08:05.302Z,100738.87
2017-12-09T19:10:14.056Z,100742.67
2017-12-09T19:12:22.828Z,100743.73
2017-12-09T19:14:31.584Z,100739.86
2017-12-09T19:16:40.395Z,100741.84
2017-12-09T19:18:49.177Z,100739.23
2017-12-09T19:20:57.973Z,100730.80
2017-12-09T19:23:06.667Z,100731.02
2017-12-09T19:25:15.407Z,100736.50
2017-12-09T19:27:24.124Z,100737.61
2017-12-09T19:29:32.836Z,100737.19
2017-12-09T19:31:41.436Z,100732.63
2017-12-09T19:33:50.060Z,100728.48
2017-12-09T19:35:58.627Z,100729.09
2017-12-09T19:38:07.582Z,100729.00
2017-12-09T19:40:16.374Z,100723.51
2017-12-09T19:42:25.344Z,100711.78
2017-12-09T19:44:34.773Z,100717.09
2017-12-09T19:46:44.045Z,100711.27
2017-12-09T19:48:53.233Z,100712.50
2017-12-09T19:51:02.258Z,100707.52
2017-12-09T19:53:11.112Z,100707.94
2017-12-09T19:55:19.789Z,100705.15
2017-12-09T19:57:28.511Z,100701.19
2017-12-09T19:59:37.225Z,100703.38
2017-12-09T20:01:45.856Z,100694.86
2017-12-09T20:03:54.784Z,100697.05
2017-12-09T20:06:03.684Z,100691.66
2017-12-09T20:08:12.502Z,100687.59
2017-12-09T20:10:21.147Z,100687.00
2017-12-09T20:12:29.771Z,100687.09
2017-12-09T20:14:38.452Z,100682.62
2017-12-09T20:16:47.097Z,100677.64
2017-12-09T20:18:55.704Z,100678.48
2017-12-09T20:21:04.572Z,100666.84
2017-12-09T20:23:13.398Z,100667.69
2017-12-09T20:25:22.033Z,100664.56
2017-12-09T20:27:30.648Z,100668.10
2017-12-09T20:29:39.516Z,100662.70
2017-12-09T20:31:48.294Z,100657.72
2017-12-09T20:33:57.317Z,100661.86
2017-12-09T20:36:05.927Z,100655.53
2017-12-09T20:38:14.856Z,100651.91
2017-12-09T20:40:23.440Z,100646.50
2017-12-09T20:42:32.052Z,100644.22
2017-12-09T20:44:40.732Z,100644.09
2017-12-09T20:46:49.450Z,100636.00
2017-12-09T20:48:58.426Z,100639.54
2017-12-09T20:51:07.261Z,100631.53
2017-12-09T20:53:15.982Z,100638.61
2017-12-09T20:55:24.592Z,100632.38
2017-12-09T20:57:33.600Z,100626.97
2017-12-09T20:59:42.318Z,100620.22
2017-12-09T21:01:50.971Z,100620.73
2017-12-09T21:03:59.719Z,100616.08
2017-12-09T21:06:08.355Z,100609.42
2017-12-09T21:08:17.186Z,100603.09
2017-12-09T21:10:26.071Z,100608.49
2017-12-09T21:12:34.736Z,100604.86
2017-12-09T21:14:43.477Z,100601.32
2017-12-09T21:16:52.171Z,100597.69
2017-12-09T21:19:01.092Z,100594.57
2017-12-09T21:21:09.823Z,100595.92
2017-12-09T21:23:18.449Z,100587.31
2017-12-09T21:25:27.374Z,100580.14
2017-12-09T21:27:36.188Z,100585.03
2017-12-09T21:29:45.179Z,100580.14
2017-12-09T21:31:53.846Z,100579.13
2017-12-09T21:34:02.520Z,100570.18
2017-12-09T21:36:11.130Z,100571.53
2017-12-09T21:38:19.789Z,100572.37
2017-12-09T21:40:28.376Z,100563.85
2017-12-09T21:42:36.912Z,100554.82
2017-12-09T21:44:45.666Z,100554.41
2017-12-09T21:46:54.603Z,100555.15
2017-12-09T21:49:03.276Z,100553.89
2017-12-09T21:51:11.980Z,100551.19
2017-12-09T21:53:20.728Z,100549.33
2017-12-09T21:55:29.562Z,100547.98
2017-12-09T21:57:38.115Z,100542.58
2017-12-09T21:59:46.897Z,100541.23
2017-12-09T22:01:55.616Z,100535.70
2017-12-09T22:04:04.273Z,100537.06
2017-12-09T22:06:13.080Z,100531.14
2017-12-09T22:08:21.627Z,100532.20
2017-12-09T22:10:30.464Z,100524.39
2017-12-09T22:12:39.033Z,100521.69
2017-12-09T22:14:47.610Z,100519.51
2017-12-09T22:16:56.520Z,100511.41
2017-12-09T22:19:05.136Z,100499.26
2017-12-09T22:21:15.049Z,100501.16
2017-12-09T22:23:23.693Z,100498.66
2017-12-09T22:25:32.411Z,100493.47
2017-12-09T22:27:41.107Z,100498.75
2017-12-09T22:29:49.872Z,100508.61
2017-12-09T22:31:58.505Z,100499.67
2017-12-09T22:34:07.420Z,100505.50
2017-12-09T22:36:16.075Z,100498.75
2017-12-09T22:38:25.072Z,100496.47
2017-12-09T22:40:33.963Z,100486.17
2017-12-09T22:42:42.792Z,100484.31
2017-12-09T22:44:51.474Z,100473.61
2017-12-09T22:47:00.205Z,100472.16
2017-12-09T22:49:08.969Z,100473.09
2017-12-09T22:51:17.481Z,100473.61
2017-12-09T22:53:26.067Z,100462.30
2017-12-09T22:55:34.744Z,100459.17
2017-12-09T22:57:43.403Z,100451.63
2017-12-09T22:59:51.972Z,100441.75
2017-12-09T23:02:00.668Z,100438.13
2017-12-09T23:04:09.448Z,100430.95
2017-12-09T23:06:18.233Z,100434.45
2017-12-09T23:08:26.892Z,100430.31
2017-12-09T23:10:35.496Z,100420.67
2017-12-09T23:12:44.228Z,100415.69
2017-12-09T23:14:52.868Z,100409.65
2017-12-09T23:17:01.528Z,100405.30
2017-12-09T23:19:10.362Z,100395.44
2017-12-09T23:21:19.142Z,100389.63
2017-12-09T23:23:27.823Z,100392.32
2017-12-09T23:25:36.564Z,100398.98
2017-12-09T23:27:45.380Z,100392.32
2017-12-09T23:29:54.129Z,100390.88
2017-12-09T23:32:02.819Z,100397.72
2017-12-09T23:34:11.495Z,100381.52
2017-12-09T23:36:20.064Z,100383.58
2017-12-09T23:38:28.958Z,100383.70
2017-12-09T23:40:37.452Z,100383.70
2017-12-09T23:42:46.309Z,100386.28
2017-12-09T23:44:54.977Z,100380.37
2017-12-09T23:47:03.588Z,100375.06
2017-12-09T23:49:12.160Z,100366.96
2017-12-09T23:51:20.796Z,100367.38
2017-12-09T23:53:29.451Z,100367.38
2017-12-09T23:55:38.199Z,100362.81
2017-12-09T23:57:46.915Z,100349.41
2017-12-09T23:59:55.598Z,100341.86
